Date,TemperatureHighF,TemperatureAvgF,TemperatureLowF,DewpointHighF,DewpointAvgF,DewpointLowF,HumidityHigh,HumidityAvg,HumidityLow,PressureMaxIn,PressureMinIn,WindSpeedMaxMPH,WindSpeedAvgMPH,GustSpeedMaxMPH,PrecipitationSumIn
2013-6-1,93.4,77.6,64.8,70.0,66.3,61.7,95,70,40,30.01,29.89,7,1,9,0.00
2013-6-2,90.1,77.5,68.9,72.1,68.0,65.3,89,74,51,29.91,29.74,8,1,12,0.00
2013-6-3,73.8,68.4,60.8,70.0,64.5,49.6,99,88,65,29.90,29.79,5,0,8,1.01
2013-6-4,77.4,62.1,50.2,50.5,45.8,41.0,81,58,31,30.12,29.90,10,1,10,0.00
2013-6-5,77.9,61.0,47.5,52.7,47.4,43.2,92,64,36,30.22,30.12,6,0,7,0.00
2013-6-6,69.8,59.8,50.7,57.9,53.1,46.9,97,80,54,30.17,30.05,5,0,7,0.07
2013-6-7,59.5,57.5,54.7,59.2,57.0,54.1,99,98,97,30.05,29.77,2,0,4,1.61
2013-6-8,62.2,57.7,59.4,59.2,51.1,-99.9,94,88,90,30.06,30.03,1,-45,1,2.04
2013-6-9,81.3,66.5,54.3,61.3,57.0,53.4,99,75,42,30.18,30.06,5,0,7,2.04
2013-6-10,72.1,62.3,58.6,65.8,60.1,56.5,99,93,79,30.19,29.89,4,0,5,0.51
2013-6-11,77.4,65.8,58.6,69.8,62.4,55.6,100,90,68,29.89,29.59,10,1,11,0.49
2013-6-12,75.6,65.7,56.8,56.7,54.3,51.6,89,68,47,29.86,29.66,7,1,10,0.00
2013-6-13,58.3,55.5,52.2,57.9,54.6,51.3,99,97,89,29.85,29.57,4,0,7,0.81
2013-6-14,70.5,57.8,50.4,63.3,55.3,50.0,100,92,68,29.88,29.58,4,0,4,1.24
2013-6-15,82.4,65.6,53.1,57.9,53.4,47.7,99,70,33,30.01,29.88,6,0,7,0.00
2013-6-16,78.6,66.7,52.3,63.7,57.2,50.5,97,74,46,29.99,29.75,7,0,9,0.00
2013-6-17,87.3,72.4,61.0,66.4,62.0,55.4,96,72,42,29.92,29.82,9,1,10,0.00
2013-6-18,84.4,67.8,59.4,69.4,62.9,57.6,97,85,59,29.92,29.81,3,0,4,0.04
2013-6-19,78.6,64.3,54.0,59.4,52.2,42.8,97,69,30,30.18,29.90,5,0,5,0.01
2013-6-20,84.0,65.6,50.5,58.8,53.6,48.6,97,69,33,30.27,30.18,7,0,7,0.00
2013-6-21,86.2,70.7,57.6,64.8,57.6,52.3,84,65,44,30.29,30.22,6,1,7,0.00
2013-6-22,88.0,71.1,57.4,64.2,58.0,54.1,92,65,38,30.26,30.13,7,1,9,0.00
2013-6-23,94.3,75.6,61.3,70.5,64.5,54.7,91,71,39,30.18,30.05,8,1,11,0.00
2013-6-24,95.7,78.5,66.9,73.0,68.9,63.5,97,76,41,30.07,29.92,9,0,10,0.09
2013-6-25,91.9,76.3,64.6,76.5,68.6,64.0,99,80,50,29.99,29.78,9,1,10,0.10
2013-6-26,80.2,75.1,69.3,71.8,68.8,67.1,96,81,70,29.84,29.75,6,0,7,0.01
2013-6-27,86.0,73.9,67.5,74.3,69.7,66.2,98,88,61,29.82,29.58,4,0,6,0.27
2013-6-28,83.5,73.3,69.6,74.8,70.9,68.7,98,92,68,29.58,29.47,7,1,7,0.79
2013-6-29,84.4,73.5,65.7,72.9,68.3,64.8,99,85,55,29.71,29.49,15,1,17,0.01
2013-6-30,83.7,74.4,69.3,76.8,71.6,67.8,97,91,78,29.93,29.71,11,1,13,0.00